sensor_id;sensor_type;location;lat;lon;timestamp;P1;durP1;ratioP1;P2;durP2;ratioP2
59424;SDS011;45231;44.826;20.312;2023-01-25T06:47:04;19.20;;;11.18;;
59424;SDS011;45231;44.826;20.312;2023-01-25T06:49:33;19.95;;;11.88;;
59424;SDS011;45231;44.826;20.312;2023-01-25T06:51:59;19.00;;;11.20;;
59424;SDS011;45231;44.826;20.312;2023-01-25T06:54:25;16.67;;;10.88;;
59424;SDS011;45231;44.826;20.312;2023-01-25T06:56:51;19.00;;;10.98;;
59424;SDS011;45231;44.826;20.312;2023-01-25T06:59:17;19.23;;;11.70;;
59424;SDS011;45231;44.826;20.312;2023-01-25T07:01:43;23.70;;;11.75;;
59424;SDS011;45231;44.826;20.312;2023-01-25T07:04:10;20.83;;;9.93;;
59424;SDS011;45231;44.826;20.312;2023-01-25T07:06:36;19.55;;;11.10;;
59424;SDS011;45231;44.826;20.312;2023-01-25T07:09:03;20.65;;;10.38;;
59424;SDS011;45231;44.826;20.312;2023-01-25T07:11:30;22.77;;;10.98;;
59424;SDS011;45231;44.826;20.312;2023-01-25T07:13:56;22.40;;;10.90;;
59424;SDS011;45231;44.826;20.312;2023-01-25T07:16:22;18.90;;;10.88;;
59424;SDS011;45231;44.826;20.312;2023-01-25T07:18:48;18.67;;;9.85;;
59424;SDS011;45231;44.826;20.312;2023-01-25T07:21:18;15.85;;;8.82;;
59424;SDS011;45231;44.826;20.312;2023-01-25T07:23:45;18.42;;;10.82;;
59424;SDS011;45231;44.826;20.312;2023-01-25T07:26:20;20.87;;;11.77;;
59424;SDS011;45231;44.826;20.312;2023-01-25T07:28:47;23.42;;;11.30;;
59424;SDS011;45231;44.826;20.312;2023-01-25T07:31:13;21.83;;;11.95;;
59424;SDS011;45231;44.826;20.312;2023-01-25T07:33:40;23.40;;;12.45;;
59424;SDS011;45231;44.826;20.312;2023-01-25T07:36:07;20.58;;;11.40;;
59424;SDS011;45231;44.826;20.312;2023-01-25T07:40:59;22.10;;;11.95;;
59424;SDS011;45231;44.826;20.312;2023-01-25T07:43:25;22.55;;;12.30;;
59424;SDS011;45231;44.826;20.312;2023-01-25T07:45:51;21.33;;;12.05;;
59424;SDS011;45231;44.826;20.312;2023-01-25T07:48:18;28.80;;;12.10;;
59424;SDS011;45231;44.826;20.312;2023-01-25T07:50:44;25.33;;;12.05;;
59424;SDS011;45231;44.826;20.312;2023-01-25T07:53:13;22.35;;;11.52;;
59424;SDS011;45231;44.826;20.312;2023-01-25T07:55:39;20.58;;;11.80;;
59424;SDS011;45231;44.826;20.312;2023-01-25T07:58:05;22.42;;;11.13;;
59424;SDS011;45231;44.826;20.312;2023-01-25T08:00:31;20.60;;;12.13;;
59424;SDS011;45231;44.826;20.312;2023-01-25T08:02:57;23.27;;;12.25;;
59424;SDS011;45231;44.826;20.312;2023-01-25T08:05:23;23.02;;;11.15;;
59424;SDS011;45231;44.826;20.312;2023-01-25T08:07:49;22.20;;;12.60;;
59424;SDS011;45231;44.826;20.312;2023-01-25T08:10:15;20.10;;;10.90;;
59424;SDS011;45231;44.826;20.312;2023-01-25T08:12:45;18.55;;;11.35;;
59424;SDS011;45231;44.826;20.312;2023-01-25T08:15:12;20.00;;;10.48;;
59424;SDS011;45231;44.826;20.312;2023-01-25T08:17:38;19.60;;;10.02;;
59424;SDS011;45231;44.826;20.312;2023-01-25T08:20:04;16.43;;;10.03;;
59424;SDS011;45231;44.826;20.312;2023-01-25T08:22:31;18.25;;;10.88;;
59424;SDS011;45231;44.826;20.312;2023-01-25T08:24:57;23.47;;;11.37;;
59424;SDS011;45231;44.826;20.312;2023-01-25T08:27:26;24.30;;;13.68;;
59424;SDS011;45231;44.826;20.312;2023-01-25T08:29:52;24.38;;;14.25;;
59424;SDS011;45231;44.826;20.312;2023-01-25T08:32:19;30.50;;;18.13;;
59424;SDS011;45231;44.826;20.312;2023-01-25T08:34:45;24.60;;;15.13;;
59424;SDS011;45231;44.826;20.312;2023-01-25T08:37:11;21.02;;;11.10;;
59424;SDS011;45231;44.826;20.312;2023-01-25T08:39:37;20.70;;;10.20;;
59424;SDS011;45231;44.826;20.312;2023-01-25T08:42:03;20.58;;;10.05;;
59424;SDS011;45231;44.826;20.312;2023-01-25T08:44:30;18.90;;;10.18;;
59424;SDS011;45231;44.826;20.312;2023-01-25T08:46:56;21.85;;;10.93;;
59424;SDS011;45231;44.826;20.312;2023-01-25T08:49:22;19.97;;;10.20;;
59424;SDS011;45231;44.826;20.312;2023-01-25T08:51:48;21.88;;;10.85;;
59424;SDS011;45231;44.826;20.312;2023-01-25T08:54:14;22.40;;;11.43;;
59424;SDS011;45231;44.826;20.312;2023-01-25T08:56:41;22.95;;;10.52;;
59424;SDS011;45231;44.826;20.312;2023-01-25T08:59:11;20.45;;;10.75;;
59424;SDS011;45231;44.826;20.312;2023-01-25T09:01:37;20.30;;;11.07;;
59424;SDS011;45231;44.826;20.312;2023-01-25T09:04:03;20.92;;;10.70;;
59424;SDS011;45231;44.826;20.312;2023-01-25T09:06:29;18.43;;;10.50;;
59424;SDS011;45231;44.826;20.312;2023-01-25T09:08:56;24.50;;;13.77;;
59424;SDS011;45231;44.826;20.312;2023-01-25T09:11:24;24.13;;;12.30;;
59424;SDS011;45231;44.826;20.312;2023-01-25T09:13:50;27.40;;;11.25;;
59424;SDS011;45231;44.826;20.312;2023-01-25T09:16:17;18.58;;;10.35;;
59424;SDS011;45231;44.826;20.312;2023-01-25T09:18:44;18.70;;;10.95;;
59424;SDS011;45231;44.826;20.312;2023-01-25T09:21:12;20.65;;;9.05;;
59424;SDS011;45231;44.826;20.312;2023-01-25T09:23:39;16.73;;;9.00;;
59424;SDS011;45231;44.826;20.312;2023-01-25T09:26:08;16.70;;;9.55;;
59424;SDS011;45231;44.826;20.312;2023-01-25T09:28:34;14.68;;;6.70;;
59424;SDS011;45231;44.826;20.312;2023-01-25T09:31:02;15.20;;;8.75;;
59424;SDS011;45231;44.826;20.312;2023-01-25T09:33:29;18.02;;;9.45;;
59424;SDS011;45231;44.826;20.312;2023-01-25T09:35:56;15.38;;;7.75;;
59424;SDS011;45231;44.826;20.312;2023-01-25T09:38:22;18.25;;;8.45;;
59424;SDS011;45231;44.826;20.312;2023-01-25T09:40:55;21.02;;;12.23;;
59424;SDS011;45231;44.826;20.312;2023-01-25T09:46:15;18.02;;;8.30;;
59424;SDS011;45231;44.826;20.312;2023-01-25T09:48:46;17.13;;;9.68;;
59424;SDS011;45231;44.826;20.312;2023-01-25T09:54:00;25.63;;;13.52;;
59424;SDS011;45231;44.826;20.312;2023-01-25T09:56:28;18.83;;;10.35;;
59424;SDS011;45231;44.826;20.312;2023-01-25T09:58:57;21.95;;;11.50;;
59424;SDS011;45231;44.826;20.312;2023-01-25T10:06:34;19.58;;;10.10;;
59424;SDS011;45231;44.826;20.312;2023-01-25T10:11:45;18.40;;;9.57;;
59424;SDS011;45231;44.826;20.312;2023-01-25T10:14:13;14.60;;;8.15;;
59424;SDS011;45231;44.826;20.312;2023-01-25T10:21:44;18.70;;;9.23;;
59424;SDS011;45231;44.826;20.312;2023-01-25T10:26:41;23.85;;;12.38;;
59424;SDS011;45231;44.826;20.312;2023-01-25T10:29:20;19.80;;;10.18;;
59424;SDS011;45231;44.826;20.312;2023-01-25T10:31:47;26.90;;;11.73;;
59424;SDS011;45231;44.826;20.312;2023-01-25T10:36:42;18.35;;;10.35;;
59424;SDS011;45231;44.826;20.312;2023-01-25T10:39:10;18.67;;;9.60;;
59424;SDS011;45231;44.826;20.312;2023-01-25T10:41:40;21.02;;;11.43;;
59424;SDS011;45231;44.826;20.312;2023-01-25T10:44:11;19.90;;;10.80;;
59424;SDS011;45231;44.826;20.312;2023-01-25T10:46:49;19.45;;;10.05;;
59424;SDS011;45231;44.826;20.312;2023-01-25T10:51:42;15.10;;;8.55;;
59424;SDS011;45231;44.826;20.312;2023-01-25T10:54:09;15.88;;;9.48;;
59424;SDS011;45231;44.826;20.312;2023-01-25T10:56:38;18.67;;;9.95;;
59424;SDS011;45231;44.826;20.312;2023-01-25T11:02:46;14.65;;;6.72;;
59424;SDS011;45231;44.826;20.312;2023-01-25T11:04:46;17.70;;;9.73;;
59424;SDS011;45231;44.826;20.312;2023-01-25T11:07:25;18.50;;;10.55;;
59424;SDS011;45231;44.826;20.312;2023-01-25T11:09:52;17.52;;;9.23;;
59424;SDS011;45231;44.826;20.312;2023-01-25T11:12:19;16.65;;;9.65;;
59424;SDS011;45231;44.826;20.312;2023-01-25T11:14:46;18.50;;;9.02;;
59424;SDS011;45231;44.826;20.312;2023-01-25T11:17:22;14.88;;;8.10;;
59424;SDS011;45231;44.826;20.312;2023-01-25T11:19:49;17.25;;;8.88;;
59424;SDS011;45231;44.826;20.312;2023-01-25T11:22:28;14.48;;;9.15;;
59424;SDS011;45231;44.826;20.312;2023-01-25T11:24:54;18.17;;;7.78;;
59424;SDS011;45231;44.826;20.312;2023-01-25T11:27:22;17.23;;;8.02;;
59424;SDS011;45231;44.826;20.312;2023-01-25T11:32:30;15.48;;;7.18;;
59424;SDS011;45231;44.826;20.312;2023-01-25T11:34:56;14.60;;;8.43;;
59424;SDS011;45231;44.826;20.312;2023-01-25T11:37:39;15.20;;;8.13;;
59424;SDS011;45231;44.826;20.312;2023-01-25T11:50:17;21.20;;;10.38;;
59424;SDS011;45231;44.826;20.312;2023-01-25T11:55:48;17.80;;;9.80;;
59424;SDS011;45231;44.826;20.312;2023-01-25T12:18:48;15.73;;;8.13;;
59424;SDS011;45231;44.826;20.312;2023-01-25T12:21:23;27.67;;;10.52;;
59424;SDS011;45231;44.826;20.312;2023-01-25T12:24:07;28.70;;;12.50;;
59424;SDS011;45231;44.826;20.312;2023-01-25T12:29:13;15.57;;;8.88;;
59424;SDS011;45231;44.826;20.312;2023-01-25T12:31:42;17.83;;;8.98;;
59424;SDS011;45231;44.826;20.312;2023-01-25T12:34:15;16.02;;;8.73;;
59424;SDS011;45231;44.826;20.312;2023-01-25T12:36:44;18.33;;;10.02;;
59424;SDS011;45231;44.826;20.312;2023-01-25T12:39:12;16.55;;;8.90;;
59424;SDS011;45231;44.826;20.312;2023-01-25T12:44:11;17.40;;;9.68;;
59424;SDS011;45231;44.826;20.312;2023-01-25T12:52:31;18.25;;;9.13;;
59424;SDS011;45231;44.826;20.312;2023-01-25T12:55:01;20.27;;;8.70;;
59424;SDS011;45231;44.826;20.312;2023-01-25T13:00:05;21.77;;;8.93;;
59424;SDS011;45231;44.826;20.312;2023-01-25T13:07:47;15.23;;;9.15;;
59424;SDS011;45231;44.826;20.312;2023-01-25T13:10:35;19.92;;;9.48;;
59424;SDS011;45231;44.826;20.312;2023-01-25T13:13:17;16.90;;;8.77;;
59424;SDS011;45231;44.826;20.312;2023-01-25T13:15:45;14.70;;;8.20;;
59424;SDS011;45231;44.826;20.312;2023-01-25T13:20:53;17.55;;;8.88;;
59424;SDS011;45231;44.826;20.312;2023-01-25T13:23:29;17.02;;;9.02;;
59424;SDS011;45231;44.826;20.312;2023-01-25T13:28:44;16.38;;;9.48;;
59424;SDS011;45231;44.826;20.312;2023-01-25T13:31:35;16.35;;;9.32;;
59424;SDS011;45231;44.826;20.312;2023-01-25T13:33:56;15.98;;;9.27;;
59424;SDS011;45231;44.826;20.312;2023-01-25T13:42:03;16.77;;;8.03;;
59424;SDS011;45231;44.826;20.312;2023-01-25T13:44:32;18.98;;;10.63;;
59424;SDS011;45231;44.826;20.312;2023-01-25T13:47:00;18.30;;;8.48;;
59424;SDS011;45231;44.826;20.312;2023-01-25T13:49:33;25.13;;;11.93;;
59424;SDS011;45231;44.826;20.312;2023-01-25T13:52:01;15.75;;;8.13;;
59424;SDS011;45231;44.826;20.312;2023-01-25T13:54:28;16.67;;;8.52;;
59424;SDS011;45231;44.826;20.312;2023-01-25T13:57:11;25.40;;;13.17;;
59424;SDS011;45231;44.826;20.312;2023-01-25T13:59:37;21.05;;;10.80;;
59424;SDS011;45231;44.826;20.312;2023-01-25T14:02:07;17.83;;;9.48;;
59424;SDS011;45231;44.826;20.312;2023-01-25T14:04:37;17.80;;;9.75;;
59424;SDS011;45231;44.826;20.312;2023-01-25T14:07:03;29.67;;;13.20;;
59424;SDS011;45231;44.826;20.312;2023-01-25T14:09:34;23.02;;;12.25;;
59424;SDS011;45231;44.826;20.312;2023-01-25T14:12:01;22.25;;;9.40;;
59424;SDS011;45231;44.826;20.312;2023-01-25T14:17:12;13.07;;;7.25;;
59424;SDS011;45231;44.826;20.312;2023-01-25T14:19:40;13.98;;;7.45;;
59424;SDS011;45231;44.826;20.312;2023-01-25T14:22:26;15.88;;;8.60;;
59424;SDS011;45231;44.826;20.312;2023-01-25T14:27:32;14.48;;;8.63;;
59424;SDS011;45231;44.826;20.312;2023-01-25T14:29:59;17.38;;;10.15;;
59424;SDS011;45231;44.826;20.312;2023-01-25T14:32:25;16.43;;;7.97;;
59424;SDS011;45231;44.826;20.312;2023-01-25T14:34:52;15.38;;;8.48;;
59424;SDS011;45231;44.826;20.312;2023-01-25T14:37:19;16.65;;;9.18;;
59424;SDS011;45231;44.826;20.312;2023-01-25T14:39:46;14.35;;;8.05;;
59424;SDS011;45231;44.826;20.312;2023-01-25T14:44:38;16.02;;;8.50;;
59424;SDS011;45231;44.826;20.312;2023-01-25T14:49:47;20.17;;;11.00;;
59424;SDS011;45231;44.826;20.312;2023-01-25T14:52:14;16.27;;;9.67;;
59424;SDS011;45231;44.826;20.312;2023-01-25T14:54:47;16.90;;;9.00;;
59424;SDS011;45231;44.826;20.312;2023-01-25T14:57:27;20.60;;;9.15;;
59424;SDS011;45231;44.826;20.312;2023-01-25T14:59:55;17.13;;;9.13;;
59424;SDS011;45231;44.826;20.312;2023-01-25T15:02:26;17.20;;;9.32;;
59424;SDS011;45231;44.826;20.312;2023-01-25T15:04:56;19.73;;;10.27;;
59424;SDS011;45231;44.826;20.312;2023-01-25T15:10:18;17.52;;;10.20;;
59424;SDS011;45231;44.826;20.312;2023-01-25T15:15:22;17.67;;;8.88;;
59424;SDS011;45231;44.826;20.312;2023-01-25T15:17:49;15.30;;;8.32;;
59424;SDS011;45231;44.826;20.312;2023-01-25T15:22:54;21.10;;;9.93;;
59424;SDS011;45231;44.826;20.312;2023-01-25T15:27:46;20.67;;;10.52;;
59424;SDS011;45231;44.826;20.312;2023-01-25T15:30:13;49.03;;;20.40;;
59424;SDS011;45231;44.826;20.312;2023-01-25T15:32:39;86.43;;;34.88;;
59424;SDS011;45231;44.826;20.312;2023-01-25T15:35:15;51.97;;;24.23;;
59424;SDS011;45231;44.826;20.312;2023-01-25T15:37:45;60.03;;;27.40;;
59424;SDS011;45231;44.826;20.312;2023-01-25T15:40:12;64.35;;;27.98;;
59424;SDS011;45231;44.826;20.312;2023-01-25T15:42:38;45.03;;;20.97;;
59424;SDS011;45231;44.826;20.312;2023-01-25T15:45:05;27.17;;;14.70;;
59424;SDS011;45231;44.826;20.312;2023-01-25T15:47:33;36.38;;;17.70;;
59424;SDS011;45231;44.826;20.312;2023-01-25T15:50:00;24.75;;;11.75;;
59424;SDS011;45231;44.826;20.312;2023-01-25T15:52:26;20.42;;;10.32;;
59424;SDS011;45231;44.826;20.312;2023-01-25T15:54:52;17.33;;;8.75;;
59424;SDS011;45231;44.826;20.312;2023-01-25T15:57:31;17.65;;;9.77;;
59424;SDS011;45231;44.826;20.312;2023-01-25T15:59:58;43.22;;;18.75;;
59424;SDS011;45231;44.826;20.312;2023-01-25T16:02:24;48.28;;;19.77;;
59424;SDS011;45231;44.826;20.312;2023-01-25T16:04:50;39.15;;;18.17;;
59424;SDS011;45231;44.826;20.312;2023-01-25T16:07:21;19.52;;;10.55;;
59424;SDS011;45231;44.826;20.312;2023-01-25T16:09:48;15.75;;;8.30;;
59424;SDS011;45231;44.826;20.312;2023-01-25T16:12:14;13.98;;;8.43;;
59424;SDS011;45231;44.826;20.312;2023-01-25T16:14:41;16.73;;;8.03;;
59424;SDS011;45231;44.826;20.312;2023-01-25T16:17:10;18.33;;;9.50;;
59424;SDS011;45231;44.826;20.312;2023-01-25T16:19:40;18.05;;;9.57;;
59424;SDS011;45231;44.826;20.312;2023-01-25T16:22:06;13.57;;;6.45;;
59424;SDS011;45231;44.826;20.312;2023-01-25T16:24:32;19.30;;;9.50;;
59424;SDS011;45231;44.826;20.312;2023-01-25T16:26:59;16.88;;;9.25;;
59424;SDS011;45231;44.826;20.312;2023-01-25T16:29:26;18.17;;;9.35;;
59424;SDS011;45231;44.826;20.312;2023-01-25T16:31:52;24.33;;;11.20;;
59424;SDS011;45231;44.826;20.312;2023-01-25T16:34:18;24.65;;;11.30;;
59424;SDS011;45231;44.826;20.312;2023-01-25T16:36:45;23.10;;;11.05;;
59424;SDS011;45231;44.826;20.312;2023-01-25T16:39:18;17.73;;;9.63;;
59424;SDS011;45231;44.826;20.312;2023-01-25T16:41:45;18.58;;;9.65;;
59424;SDS011;45231;44.826;20.312;2023-01-25T16:44:11;17.38;;;9.52;;
59424;SDS011;45231;44.826;20.312;2023-01-25T16:46:37;21.30;;;13.95;;
59424;SDS011;45231;44.826;20.312;2023-01-25T16:49:03;18.70;;;9.75;;
59424;SDS011;45231;44.826;20.312;2023-01-25T16:51:32;16.80;;;9.27;;
59424;SDS011;45231;44.826;20.312;2023-01-25T16:53:59;15.80;;;8.05;;
59424;SDS011;45231;44.826;20.312;2023-01-25T16:56:26;19.30;;;10.10;;
59424;SDS011;45231;44.826;20.312;2023-01-25T16:58:53;20.55;;;13.18;;
59424;SDS011;45231;44.826;20.312;2023-01-25T17:01:19;18.52;;;11.13;;
59424;SDS011;45231;44.826;20.312;2023-01-25T17:03:46;14.05;;;9.05;;
59424;SDS011;45231;44.826;20.312;2023-01-25T17:06:16;13.07;;;7.93;;
59424;SDS011;45231;44.826;20.312;2023-01-25T17:08:46;15.65;;;8.23;;
59424;SDS011;45231;44.826;20.312;2023-01-25T17:11:12;26.45;;;13.95;;
59424;SDS011;45231;44.826;20.312;2023-01-25T17:13:38;23.07;;;13.80;;
59424;SDS011;45231;44.826;20.312;2023-01-25T17:16:04;22.08;;;12.38;;
59424;SDS011;45231;44.826;20.312;2023-01-25T17:18:30;20.83;;;10.93;;
59424;SDS011;45231;44.826;20.312;2023-01-25T17:21:03;17.58;;;10.60;;
59424;SDS011;45231;44.826;20.312;2023-01-25T17:23:31;21.80;;;11.18;;
59424;SDS011;45231;44.826;20.312;2023-01-25T17:25:58;16.75;;;9.90;;
59424;SDS011;45231;44.826;20.312;2023-01-25T17:28:24;18.58;;;11.45;;
59424;SDS011;45231;44.826;20.312;2023-01-25T17:30:51;27.58;;;14.73;;
59424;SDS011;45231;44.826;20.312;2023-01-25T17:33:17;20.55;;;12.30;;
59424;SDS011;45231;44.826;20.312;2023-01-25T17:35:44;88.40;;;36.00;;
59424;SDS011;45231;44.826;20.312;2023-01-25T17:38:10;116.50;;;40.75;;
59424;SDS011;45231;44.826;20.312;2023-01-25T17:40:36;37.08;;;16.75;;
59424;SDS011;45231;44.826;20.312;2023-01-25T17:43:02;26.42;;;13.98;;
59424;SDS011;45231;44.826;20.312;2023-01-25T17:45:28;52.63;;;29.13;;
59424;SDS011;45231;44.826;20.312;2023-01-25T17:47:55;74.40;;;33.63;;
59424;SDS011;45231;44.826;20.312;2023-01-25T17:50:21;44.40;;;24.13;;
59424;SDS011;45231;44.826;20.312;2023-01-25T17:52:47;77.38;;;34.70;;
59424;SDS011;45231;44.826;20.312;2023-01-25T17:55:13;50.53;;;24.58;;
59424;SDS011;45231;44.826;20.312;2023-01-25T17:57:39;48.90;;;21.52;;
59424;SDS011;45231;44.826;20.312;2023-01-25T18:00:05;59.92;;;25.85;;
59424;SDS011;45231;44.826;20.312;2023-01-25T18:02:32;37.50;;;17.92;;
59424;SDS011;45231;44.826;20.312;2023-01-25T18:04:58;31.80;;;15.95;;
59424;SDS011;45231;44.826;20.312;2023-01-25T18:07:24;22.00;;;11.93;;
59424;SDS011;45231;44.826;20.312;2023-01-25T18:09:50;34.72;;;19.20;;
59424;SDS011;45231;44.826;20.312;2023-01-25T18:12:16;37.97;;;20.17;;
59424;SDS011;45231;44.826;20.312;2023-01-25T18:14:42;24.27;;;12.73;;
59424;SDS011;45231;44.826;20.312;2023-01-25T18:17:09;25.40;;;14.30;;
59424;SDS011;45231;44.826;20.312;2023-01-25T18:19:35;30.38;;;13.73;;
59424;SDS011;45231;44.826;20.312;2023-01-25T18:22:01;35.85;;;17.13;;
59424;SDS011;45231;44.826;20.312;2023-01-25T18:24:31;38.55;;;19.05;;
59424;SDS011;45231;44.826;20.312;2023-01-25T18:27:16;25.40;;;14.15;;
59424;SDS011;45231;44.826;20.312;2023-01-25T18:32:15;25.27;;;14.85;;
59424;SDS011;45231;44.826;20.312;2023-01-25T18:34:41;20.75;;;10.95;;
59424;SDS011;45231;44.826;20.312;2023-01-25T18:37:07;23.23;;;10.82;;
59424;SDS011;45231;44.826;20.312;2023-01-25T18:39:42;22.35;;;12.65;;
59424;SDS011;45231;44.826;20.312;2023-01-25T18:42:08;19.23;;;11.68;;
59424;SDS011;45231;44.826;20.312;2023-01-25T18:44:35;18.73;;;11.18;;
59424;SDS011;45231;44.826;20.312;2023-01-25T18:47:01;20.30;;;11.63;;
59424;SDS011;45231;44.826;20.312;2023-01-25T18:49:27;17.92;;;8.48;;
59424;SDS011;45231;44.826;20.312;2023-01-25T18:51:53;16.15;;;8.90;;
59424;SDS011;45231;44.826;20.312;2023-01-25T18:54:19;16.75;;;9.80;;
59424;SDS011;45231;44.826;20.312;2023-01-25T18:56:45;18.13;;;9.93;;
59424;SDS011;45231;44.826;20.312;2023-01-25T18:59:11;17.52;;;9.98;;
59424;SDS011;45231;44.826;20.312;2023-01-25T19:01:37;20.63;;;10.32;;
59424;SDS011;45231;44.826;20.312;2023-01-25T19:04:03;18.30;;;9.50;;
59424;SDS011;45231;44.826;20.312;2023-01-25T19:06:29;16.30;;;10.18;;
59424;SDS011;45231;44.826;20.312;2023-01-25T19:08:55;18.77;;;10.10;;
59424;SDS011;45231;44.826;20.312;2023-01-25T19:11:22;16.45;;;10.52;;
59424;SDS011;45231;44.826;20.312;2023-01-25T19:13:49;17.58;;;10.15;;
59424;SDS011;45231;44.826;20.312;2023-01-25T19:16:19;14.13;;;7.82;;
59424;SDS011;45231;44.826;20.312;2023-01-25T19:18:49;16.20;;;10.10;;
59424;SDS011;45231;44.826;20.312;2023-01-25T19:21:17;15.55;;;8.75;;
59424;SDS011;45231;44.826;20.312;2023-01-25T19:23:44;18.30;;;10.13;;
59424;SDS011;45231;44.826;20.312;2023-01-25T19:26:11;18.88;;;9.95;;
59424;SDS011;45231;44.826;20.312;2023-01-25T19:28:37;22.92;;;13.98;;
59424;SDS011;45231;44.826;20.312;2023-01-25T19:31:07;19.23;;;12.07;;
59424;SDS011;45231;44.826;20.312;2023-01-25T19:33:34;30.50;;;14.95;;
59424;SDS011;45231;44.826;20.312;2023-01-25T19:36:00;19.17;;;10.15;;
59424;SDS011;45231;44.826;20.312;2023-01-25T19:38:28;20.65;;;10.90;;
59424;SDS011;45231;44.826;20.312;2023-01-25T19:40:54;19.73;;;9.38;;
59424;SDS011;45231;44.826;20.312;2023-01-25T19:43:20;16.15;;;9.30;;
59424;SDS011;45231;44.826;20.312;2023-01-25T19:45:46;16.48;;;9.77;;
59424;SDS011;45231;44.826;20.312;2023-01-25T19:48:12;17.05;;;10.88;;
59424;SDS011;45231;44.826;20.312;2023-01-25T19:50:38;22.08;;;11.63;;
59424;SDS011;45231;44.826;20.312;2023-01-25T19:53:04;22.10;;;12.48;;
59424;SDS011;45231;44.826;20.312;2023-01-25T19:55:31;20.37;;;12.53;;
59424;SDS011;45231;44.826;20.312;2023-01-25T19:57:57;23.83;;;12.43;;
59424;SDS011;45231;44.826;20.312;2023-01-25T20:00:23;23.20;;;13.18;;
59424;SDS011;45231;44.826;20.312;2023-01-25T20:02:49;22.50;;;11.25;;
59424;SDS011;45231;44.826;20.312;2023-01-25T20:05:15;26.60;;;13.67;;
59424;SDS011;45231;44.826;20.312;2023-01-25T20:07:41;30.30;;;18.38;;
59424;SDS011;45231;44.826;20.312;2023-01-25T20:10:07;22.05;;;12.55;;
59424;SDS011;45231;44.826;20.312;2023-01-25T20:12:35;20.27;;;12.32;;
59424;SDS011;45231;44.826;20.312;2023-01-25T20:15:01;24.02;;;13.30;;
59424;SDS011;45231;44.826;20.312;2023-01-25T20:17:27;23.77;;;14.10;;
59424;SDS011;45231;44.826;20.312;2023-01-25T20:19:53;24.65;;;12.73;;
59424;SDS011;45231;44.826;20.312;2023-01-25T20:22:19;22.27;;;13.18;;
59424;SDS011;45231;44.826;20.312;2023-01-25T20:24:45;21.98;;;12.98;;
59424;SDS011;45231;44.826;20.312;2023-01-25T20:27:11;23.58;;;12.75;;
59424;SDS011;45231;44.826;20.312;2023-01-25T20:29:37;25.08;;;14.68;;
59424;SDS011;45231;44.826;20.312;2023-01-25T20:32:04;24.00;;;14.75;;
59424;SDS011;45231;44.826;20.312;2023-01-25T20:34:30;22.10;;;12.17;;
59424;SDS011;45231;44.826;20.312;2023-01-25T20:36:56;23.88;;;13.30;;
59424;SDS011;45231;44.826;20.312;2023-01-25T20:39:24;28.05;;;14.95;;
59424;SDS011;45231;44.826;20.312;2023-01-25T20:41:50;24.33;;;13.43;;
59424;SDS011;45231;44.826;20.312;2023-01-25T20:46:43;24.90;;;13.88;;
59424;SDS011;45231;44.826;20.312;2023-01-25T20:49:14;30.77;;;15.68;;
59424;SDS011;45231;44.826;20.312;2023-01-25T20:51:40;28.08;;;15.18;;
59424;SDS011;45231;44.826;20.312;2023-01-25T20:54:06;25.67;;;14.63;;
59424;SDS011;45231;44.826;20.312;2023-01-25T20:56:33;24.40;;;14.82;;
59424;SDS011;45231;44.826;20.312;2023-01-25T20:59:00;25.88;;;15.30;;
59424;SDS011;45231;44.826;20.312;2023-01-25T21:01:27;28.00;;;15.73;;
59424;SDS011;45231;44.826;20.312;2023-01-25T21:03:54;28.95;;;15.57;;
59424;SDS011;45231;44.826;20.312;2023-01-25T21:06:23;25.58;;;14.20;;
59424;SDS011;45231;44.826;20.312;2023-01-25T21:08:49;26.20;;;15.68;;
59424;SDS011;45231;44.826;20.312;2023-01-25T21:11:15;29.17;;;16.38;;
59424;SDS011;45231;44.826;20.312;2023-01-25T21:13:41;25.00;;;14.73;;
59424;SDS011;45231;44.826;20.312;2023-01-25T21:16:12;26.83;;;14.70;;
59424;SDS011;45231;44.826;20.312;2023-01-25T21:18:40;27.90;;;15.77;;
59424;SDS011;45231;44.826;20.312;2023-01-25T21:21:10;27.90;;;14.75;;
59424;SDS011;45231;44.826;20.312;2023-01-25T21:23:37;29.80;;;14.65;;
59424;SDS011;45231;44.826;20.312;2023-01-25T21:26:04;26.70;;;15.85;;
59424;SDS011;45231;44.826;20.312;2023-01-25T21:28:31;25.48;;;14.25;;
59424;SDS011;45231;44.826;20.312;2023-01-25T21:30:58;26.23;;;15.80;;
59424;SDS011;45231;44.826;20.312;2023-01-25T21:33:30;23.52;;;13.70;;
59424;SDS011;45231;44.826;20.312;2023-01-25T21:36:00;25.85;;;15.45;;
59424;SDS011;45231;44.826;20.312;2023-01-25T21:38:27;24.77;;;14.95;;
59424;SDS011;45231;44.826;20.312;2023-01-25T21:40:58;27.93;;;16.30;;
59424;SDS011;45231;44.826;20.312;2023-01-25T21:43:25;26.27;;;15.63;;
59424;SDS011;45231;44.826;20.312;2023-01-25T21:45:51;26.90;;;15.23;;
59424;SDS011;45231;44.826;20.312;2023-01-25T21:48:35;28.02;;;16.88;;
59424;SDS011;45231;44.826;20.312;2023-01-25T21:51:20;25.00;;;15.13;;
59424;SDS011;45231;44.826;20.312;2023-01-25T21:54:03;24.50;;;13.98;;
59424;SDS011;45231;44.826;20.312;2023-01-25T21:56:30;26.85;;;14.82;;
59424;SDS011;45231;44.826;20.312;2023-01-25T21:58:56;25.42;;;13.77;;
59424;SDS011;45231;44.826;20.312;2023-01-25T22:01:22;30.50;;;18.15;;
59424;SDS011;45231;44.826;20.312;2023-01-25T22:03:48;24.92;;;14.50;;
59424;SDS011;45231;44.826;20.312;2023-01-25T22:06:15;28.90;;;15.93;;
59424;SDS011;45231;44.826;20.312;2023-01-25T22:08:42;30.17;;;17.52;;
59424;SDS011;45231;44.826;20.312;2023-01-25T22:11:08;36.65;;;22.67;;
59424;SDS011;45231;44.826;20.312;2023-01-25T22:13:35;32.20;;;16.15;;
59424;SDS011;45231;44.826;20.312;2023-01-25T22:16:02;28.73;;;15.77;;
59424;SDS011;45231;44.826;20.312;2023-01-25T22:18:32;29.05;;;15.35;;
59424;SDS011;45231;44.826;20.312;2023-01-25T22:20:59;25.80;;;14.13;;
59424;SDS011;45231;44.826;20.312;2023-01-25T22:23:25;23.08;;;12.27;;
59424;SDS011;45231;44.826;20.312;2023-01-25T22:26:02;24.17;;;14.02;;
59424;SDS011;45231;44.826;20.312;2023-01-25T22:28:30;19.63;;;11.60;;
59424;SDS011;45231;44.826;20.312;2023-01-25T22:30:57;20.98;;;12.50;;
59424;SDS011;45231;44.826;20.312;2023-01-25T22:33:23;22.90;;;13.75;;
59424;SDS011;45231;44.826;20.312;2023-01-25T22:35:49;20.98;;;12.57;;
59424;SDS011;45231;44.826;20.312;2023-01-25T22:38:15;25.15;;;13.68;;
59424;SDS011;45231;44.826;20.312;2023-01-25T22:40:41;21.00;;;11.75;;
59424;SDS011;45231;44.826;20.312;2023-01-25T22:43:07;19.48;;;11.82;;
59424;SDS011;45231;44.826;20.312;2023-01-25T22:45:33;18.23;;;9.95;;
59424;SDS011;45231;44.826;20.312;2023-01-25T22:47:59;29.50;;;14.02;;
59424;SDS011;45231;44.826;20.312;2023-01-25T22:50:25;21.38;;;9.52;;
59424;SDS011;45231;44.826;20.312;2023-01-25T22:52:51;19.70;;;10.55;;
59424;SDS011;45231;44.826;20.312;2023-01-25T22:55:17;18.67;;;10.55;;
59424;SDS011;45231;44.826;20.312;2023-01-25T22:57:43;19.02;;;9.82;;
59424;SDS011;45231;44.826;20.312;2023-01-25T23:00:09;16.75;;;9.23;;
59424;SDS011;45231;44.826;20.312;2023-01-25T23:02:35;15.00;;;8.35;;
59424;SDS011;45231;44.826;20.312;2023-01-25T23:05:01;17.48;;;9.38;;
59424;SDS011;45231;44.826;20.312;2023-01-25T23:07:27;19.48;;;8.38;;